Time;durP1;ratioP1;P1;durP2;ratioP2;P2;SDS_P1;SDS_P2;PMS_P1;PMS_P2;Temp;Humidity;BMP_temperature;BMP_pressure;BME280_temperature;BME280_humidity;BME280_pressure;Samples;Min_cycle;Max_cycle;Signal;HPM_P1;HPM_P2
2022/12/27 00:01:20;;;;;;;18.90;2.90;;;3.60;75.10;;;;;;4117160;28;20050;-87
2022/12/27 00:03:20;;;;;;;24.48;2.10;;;3.50;75.10;;;;;;4161589;28;20045;-87
2022/12/27 00:05:21;;;;;;;13.80;2.00;;;3.50;75.10;;;;;;4128866;28;20100;-86
2022/12/27 00:07:22;;;;;;;15.88;2.17;;;3.50;75.30;;;;;;4128559;28;20031;-87
2022/12/27 00:09:23;;;;;;;15.00;2.40;;;3.50;75.30;;;;;;4149775;28;20108;-85
2022/12/27 00:11:28;;;;;;;22.75;3.15;;;3.50;75.40;;;;;;4146778;28;20041;-85
2022/12/27 00:13:29;;;;;;;15.63;2.22;;;3.50;75.50;;;;;;4122045;28;20049;-85
2022/12/27 00:15:31;;;;;;;20.50;2.80;;;3.50;75.70;;;;;;4135553;28;20602;-86
2022/12/27 00:17:32;;;;;;;20.20;2.70;;;3.50;76.00;;;;;;4120014;28;20162;-86
2022/12/27 00:19:36;;;;;;;15.23;1.65;;;3.50;76.10;;;;;;4121295;28;20026;-87
2022/12/27 00:21:59;;;;;;;19.20;2.10;;;3.50;76.30;;;;;;4131627;28;20147;-87
2022/12/27 00:24:20;;;;;;;27.38;2.75;;;3.50;76.60;;;;;;4136576;28;20154;-87
2022/12/27 00:26:23;;;;;;;15.65;2.15;;;3.50;76.60;;;;;;4152416;28;20025;-87
2022/12/27 00:28:45;;;;;;;12.93;1.90;;;3.50;76.80;;;;;;4136721;28;20040;-87
2022/12/27 00:31:06;;;;;;;10.90;1.55;;;3.60;77.20;;;;;;4141262;28;20041;-86
2022/12/27 00:33:28;;;;;;;13.88;1.63;;;3.60;77.20;;;;;;4151077;28;20053;-86
2022/12/27 00:35:49;;;;;;;9.18;1.30;;;3.60;77.40;;;;;;4143954;28;20579;-87
2022/12/27 00:38:09;;;;;;;13.43;1.52;;;3.60;77.50;;;;;;4146858;28;20029;-87
2022/12/27 00:40:30;;;;;;;6.88;1.00;;;3.70;77.60;;;;;;4141563;28;20038;-87
2022/12/27 00:42:50;;;;;;;9.23;1.42;;;3.90;77.70;;;;;;4150177;28;20029;-86
2022/12/27 00:45:11;;;;;;;10.63;1.27;;;3.70;77.50;;;;;;4147195;28;20030;-87
2022/12/27 00:47:32;;;;;;;9.38;1.17;;;3.70;77.40;;;;;;4141579;28;20073;-87
2022/12/27 00:49:39;;;;;;;11.07;1.35;;;3.70;77.40;;;;;;4126462;28;20027;-87
2022/12/27 00:51:40;;;;;;;7.32;1.00;;;3.80;77.40;;;;;;4128621;28;20661;-86
2022/12/27 00:53:41;;;;;;;3.83;0.70;;;3.80;77.40;;;;;;4144085;28;20391;-86
2022/12/27 00:55:42;;;;;;;13.07;1.10;;;3.80;77.30;;;;;;4135202;28;20507;-87
2022/12/27 00:57:44;;;;;;;6.70;0.90;;;3.90;77.40;;;;;;4152403;28;20077;-86
2022/12/27 00:59:52;;;;;;;8.93;1.30;;;3.80;77.30;;;;;;4147585;28;20285;-86
2022/12/27 01:02:12;;;;;;;7.75;1.00;;;3.80;77.30;;;;;;4132694;28;20038;-87
2022/12/27 01:04:33;;;;;;;9.35;1.33;;;3.70;77.30;;;;;;4135251;28;20135;-87
2022/12/27 01:06:53;;;;;;;12.93;1.67;;;3.80;77.40;;;;;;4136317;28;20027;-85
2022/12/27 01:09:14;;;;;;;8.27;1.17;;;3.80;77.50;;;;;;4132029;28;20030;-86
2022/12/27 01:11:35;;;;;;;9.90;1.17;;;3.80;77.50;;;;;;4134902;28;20038;-87
2022/12/27 01:14:00;;;;;;;5.45;1.00;;;3.90;77.80;;;;;;4148460;28;20057;-86
2022/12/27 01:16:22;;;;;;;7.75;0.85;;;3.80;77.60;;;;;;4133990;28;20049;-87
2022/12/27 01:18:44;;;;;;;4.90;0.68;;;3.80;77.60;;;;;;4134665;28;20034;-87
2022/12/27 01:21:06;;;;;;;6.80;0.90;;;4.00;77.80;;;;;;4147825;28;20029;-85
2022/12/27 01:23:30;;;;;;;7.80;1.00;;;3.80;77.70;;;;;;4147879;28;20038;-86
2022/12/27 01:25:59;;;;;;;4.90;0.90;;;3.80;77.70;;;;;;4136181;28;20061;-86
2022/12/27 01:28:19;;;;;;;6.80;0.98;;;3.80;77.60;;;;;;4145805;28;20062;-88
2022/12/27 01:30:40;;;;;;;7.43;0.80;;;3.80;77.70;;;;;;4137226;28;21555;-87
2022/12/27 01:33:01;;;;;;;7.00;1.25;;;3.80;77.70;;;;;;4138578;28;20049;-86
2022/12/27 01:35:21;;;;;;;11.63;1.23;;;3.90;77.80;;;;;;4147143;28;20034;-86
2022/12/27 01:37:42;;;;;;;15.38;2.17;;;3.80;77.70;;;;;;4164494;28;20071;-87
2022/12/27 01:40:03;;;;;;;9.45;1.40;;;3.80;77.80;;;;;;4134180;28;20606;-86
2022/12/27 01:45:19;;;;;;;13.50;1.80;;;3.80;77.80;;;;;;4148725;28;20066;-87
2022/12/27 01:47:58;;;;;;;11.18;1.70;;;3.90;77.80;;;;;;4135071;28;20088;-86
2022/12/27 01:50:36;;;;;;;7.75;1.30;;;3.80;77.70;;;;;;4135779;28;20059;-87
2022/12/27 01:53:18;;;;;;;9.65;1.30;;;3.80;77.80;;;;;;4124644;28;20403;-86
2022/12/27 01:55:49;;;;;;;12.98;1.90;;;3.80;77.80;;;;;;4150104;28;20072;-86
2022/12/27 01:58:21;;;;;;;13.85;1.63;;;3.80;77.90;;;;;;4147691;28;20788;-86
2022/12/27 02:00:44;;;;;;;8.13;0.98;;;3.80;77.90;;;;;;4146750;28;20034;-88
2022/12/27 02:03:06;;;;;;;13.05;1.35;;;3.80;77.90;;;;;;4134566;28;20034;-86
2022/12/27 02:05:27;;;;;;;8.77;1.45;;;3.70;78.60;;;;;;4137488;28;20465;-86
2022/12/27 02:08:11;;;;;;;7.20;1.67;;;3.80;77.90;;;;;;4138616;28;20534;-86
2022/12/27 02:10:32;;;;;;;12.88;1.92;;;3.70;77.80;;;;;;4139148;28;20142;-87
2022/12/27 02:12:53;;;;;;;10.32;1.40;;;3.80;78.00;;;;;;4146359;28;20155;-86
2022/12/27 02:15:13;;;;;;;7.10;1.48;;;3.70;77.90;;;;;;4132218;28;20179;-87
2022/12/27 02:17:34;;;;;;;19.38;1.67;;;3.70;78.00;;;;;;4145229;28;20040;-85
2022/12/27 02:20:13;;;;;;;13.85;1.83;;;3.70;78.20;;;;;;4132954;28;20034;-87
2022/12/27 02:24:01;;;;;;;10.90;1.23;;;3.80;78.50;;;;;;4155685;28;20029;-86
2022/12/27 02:25:45;;;;;;;7.55;1.10;;;3.70;78.40;;;;;;4150121;28;20034;-85
2022/12/27 02:28:29;;;;;;;12.48;1.40;;;3.80;78.60;;;;;;4135668;28;20034;-87
2022/12/27 02:30:57;;;;;;;16.60;1.55;;;3.80;78.80;;;;;;4137588;28;20034;-86
2022/12/27 02:33:23;;;;;;;9.07;1.25;;;3.80;78.50;;;;;;4146544;28;20517;-88
2022/12/27 02:35:53;;;;;;;9.23;1.52;;;3.80;78.50;;;;;;4141506;28;20120;-86
2022/12/27 02:38:26;;;;;;;11.85;1.10;;;3.80;78.40;;;;;;4129732;28;20026;-87
2022/12/27 02:55:32;;;;;;;10.65;1.35;;;3.80;77.80;;;;;;4158153;28;20034;-86
2022/12/27 02:58:12;;;;;;;16.40;1.48;;;3.80;77.80;;;;;;4142586;28;20482;-85
2022/12/27 03:03:38;;;;;;;15.68;1.73;;;3.80;77.80;;;;;;4148619;28;20037;-86
2022/12/27 03:06:41;;;;;;;14.82;1.75;;;3.80;77.90;;;;;;4139392;28;20441;-85
2022/12/27 03:15:56;;;;;;;10.25;1.33;;;3.70;78.20;;;;;;4146358;28;20509;-86
2022/12/27 03:18:21;;;;;;;10.63;1.17;;;3.70;78.00;;;;;;4148020;28;20056;-86
2022/12/27 03:26:04;;;;;;;8.38;1.45;;;3.70;78.10;;;;;;4145875;28;20219;-87
2022/12/27 03:34:03;;;;;;;8.65;1.25;;;3.70;78.00;;;;;;4151365;28;20872;-87
2022/12/27 03:39:08;;;;;;;8.27;1.05;;;3.60;78.00;;;;;;4150942;28;20049;-86
2022/12/27 03:44:33;;;;;;;11.75;1.70;;;3.60;78.10;;;;;;4152820;28;20433;-86
2022/12/27 03:46:57;;;;;;;13.15;1.50;;;3.60;78.20;;;;;;4151569;28;20033;-85
2022/12/27 03:49:41;;;;;;;11.15;1.10;;;3.60;78.20;;;;;;4134372;28;20052;-86
2022/12/27 03:52:04;;;;;;;;;;;3.60;78.30;;;;;;4151973;28;21522;-86
2022/12/27 03:54:31;;;;;;;5.35;0.95;;;3.60;78.40;;;;;;4136374;28;19960;-85
2022/12/27 03:56:52;;;;;;;10.48;1.67;;;3.60;78.20;;;;;;4149112;28;20048;-85
2022/12/27 03:59:11;;;;;;;6.55;0.93;;;3.60;78.30;;;;;;4139748;28;20099;-85
2022/12/27 04:01:30;;;;;;;10.13;1.40;;;3.60;78.30;;;;;;4147132;28;20757;-85
2022/12/27 04:03:49;;;;;;;6.43;0.93;;;3.60;78.30;;;;;;4155741;28;20397;-85
2022/12/27 04:06:08;;;;;;;7.20;1.02;;;3.60;78.40;;;;;;4155933;28;20043;-87
2022/12/27 04:34:47;;;;;;;10.55;1.00;;;3.40;78.00;;;;;;4154434;28;20064;-86
2022/12/27 04:37:08;;;;;;;6.90;0.70;;;3.40;78.00;;;;;;4139007;28;20045;-85
2022/12/27 04:39:28;;;;;;;4.18;0.63;;;3.40;78.10;;;;;;4150022;28;20040;-86
2022/12/27 04:55:16;;;;;;;7.55;0.68;;;3.30;78.40;;;;;;4155021;28;20053;-86
2022/12/27 04:57:35;;;;;;;6.88;0.90;;;3.30;78.40;;;;;;4138885;28;20073;-86
2022/12/27 05:02:32;;;;;;;6.72;0.60;;;3.20;79.00;;;;;;4148472;28;20044;-86
2022/12/27 05:04:52;;;;;;;2.47;0.32;;;3.20;78.30;;;;;;4150680;28;20057;-86
2022/12/27 05:13:58;;;;;;;7.50;0.88;;;3.20;78.40;;;;;;4150056;28;20030;-87
2022/12/27 05:14:18;;;;;;;2.47;0.50;;;3.10;78.40;;;;;;4162424;28;20029;-86
2022/12/27 05:16:19;;;;;;;2.22;0.60;;;3.20;78.50;;;;;;4152042;28;20076;-86
2022/12/27 05:18:20;;;;;;;1.55;0.38;;;3.10;78.40;;;;;;4149619;28;20173;-88
2022/12/27 05:20:20;;;;;;;7.78;0.70;;;3.10;78.40;;;;;;4136821;28;20022;-87
2022/12/27 05:27:00;;;;;;;3.80;0.80;;;3.10;78.60;;;;;;4149181;28;20026;-86
2022/12/27 05:29:01;;;;;;;11.70;0.98;;;3.10;78.60;;;;;;4147812;28;20104;-87
2022/12/27 05:31:01;;;;;;;5.50;0.40;;;3.10;78.60;;;;;;4139473;28;20137;-85
2022/12/27 05:33:03;;;;;;;12.00;0.80;;;3.10;78.60;;;;;;4136054;28;20021;-86
2022/12/27 05:35:04;;;;;;;7.82;0.40;;;3.10;78.60;;;;;;4150442;28;20029;-86
2022/12/27 05:37:05;;;;;;;5.10;0.60;;;3.10;78.60;;;;;;4139786;28;20074;-86
2022/12/27 05:39:05;;;;;;;5.35;0.68;;;3.10;78.60;;;;;;4132709;28;20022;-85
2022/12/27 05:41:06;;;;;;;3.97;0.50;;;3.10;78.60;;;;;;4152582;28;20024;-86
2022/12/27 05:43:07;;;;;;;2.88;0.30;;;3.00;78.60;;;;;;4149375;28;20079;-85
2022/12/27 05:45:08;;;;;;;2.85;0.82;;;3.20;78.70;;;;;;4149794;28;20041;-84
2022/12/27 05:47:08;;;;;;;7.20;0.77;;;3.00;78.60;;;;;;4133402;28;20077;-85
2022/12/27 05:49:09;;;;;;;7.43;0.88;;;3.10;78.70;;;;;;4137966;28;20033;-85
2022/12/27 05:51:19;;;;;;;3.90;0.52;;;3.00;78.60;;;;;;4150530;28;20036;-85
2022/12/27 05:53:20;;;;;;;5.55;1.15;;;3.00;78.60;;;;;;4120362;28;20531;-85
2022/12/27 05:55:20;;;;;;;7.35;0.50;;;3.00;78.50;;;;;;4165533;28;20085;-83
2022/12/27 05:57:21;;;;;;;2.60;0.52;;;3.00;78.20;;;;;;4168056;28;20032;-84
2022/12/27 05:59:22;;;;;;;5.90;0.60;;;3.00;78.10;;;;;;4159022;28;20034;-84
2022/12/27 06:01:22;;;;;;;2.15;0.50;;;3.00;78.10;;;;;;4158814;28;20396;-85
2022/12/27 06:03:23;;;;;;;5.57;0.50;;;2.90;78.00;;;;;;4146682;28;20128;-86
2022/12/27 06:05:24;;;;;;;5.55;0.70;;;2.90;78.00;;;;;;4155450;28;20022;-86
2022/12/27 06:07:24;;;;;;;4.50;0.57;;;2.90;78.10;;;;;;4137739;28;20430;-85
2022/12/27 06:09:25;;;;;;;4.55;0.43;;;2.90;78.10;;;;;;4150363;28;20044;-86
2022/12/27 06:11:26;;;;;;;7.10;0.60;;;2.80;78.20;;;;;;4152869;28;20018;-85
2022/12/27 06:13:26;;;;;;;4.60;0.60;;;2.80;78.20;;;;;;4147452;28;20022;-85
2022/12/27 06:15:27;;;;;;;4.00;0.40;;;2.80;78.20;;;;;;4163376;28;20082;-86
2022/12/27 06:17:28;;;;;;;4.07;0.55;;;2.80;78.30;;;;;;4155501;28;20029;-85
2022/12/27 06:19:28;;;;;;;0.80;0.32;;;2.80;78.30;;;;;;4139019;28;20049;-86
2022/12/27 06:21:29;;;;;;;1.67;0.32;;;2.70;78.20;;;;;;4152855;28;20029;-85
2022/12/27 06:23:30;;;;;;;2.10;0.43;;;2.70;78.20;;;;;;4136481;28;20065;-86
2022/12/27 06:25:50;;;;;;;4.97;0.80;;;2.70;78.20;;;;;;4146498;28;20034;-86
2022/12/27 06:28:11;;;;;;;3.97;0.50;;;2.60;78.10;;;;;;4138061;28;20172;-85
2022/12/27 06:30:31;;;;;;;5.90;0.50;;;2.60;78.10;;;;;;4137727;28;20072;-85
2022/12/27 06:32:44;;;;;;;1.88;0.47;;;2.60;78.20;;;;;;4135935;28;20045;-86
2022/12/27 06:34:48;;;;;;;6.85;0.70;;;2.60;78.20;;;;;;4136218;28;20026;-85
2022/12/27 06:37:09;;;;;;;6.22;0.70;;;2.50;78.20;;;;;;4154636;28;20033;-85
2022/12/27 06:39:29;;;;;;;2.55;0.50;;;2.50;78.20;;;;;;4150462;28;20088;-85
2022/12/27 06:41:53;;;;;;;1.48;0.30;;;2.50;78.20;;;;;;4133649;28;20057;-86
2022/12/27 06:43:56;;;;;;;1.65;0.17;;;2.50;78.20;;;;;;4136365;28;20029;-85
2022/12/27 06:46:17;;;;;;;6.43;0.30;;;2.40;78.20;;;;;;4161330;28;20033;-86
2022/12/27 06:48:36;;;;;;;4.32;0.55;;;2.40;78.30;;;;;;4162855;28;20025;-84
2022/12/27 06:50:52;;;;;;;2.95;0.50;;;2.40;78.40;;;;;;4125056;28;20026;-85
2022/12/27 06:52:53;;;;;;;3.70;0.38;;;2.40;78.50;;;;;;4135297;28;20077;-85
2022/12/27 06:55:14;;;;;;;4.43;0.30;;;2.40;78.50;;;;;;4149066;28;20509;-87
2022/12/27 06:57:34;;;;;;;2.92;0.43;;;2.30;78.60;;;;;;4138427;28;20038;-85
2022/12/27 06:59:55;;;;;;;2.33;0.30;;;2.30;78.80;;;;;;4126430;28;20034;-86
2022/12/27 07:02:15;;;;;;;3.75;0.40;;;2.30;78.90;;;;;;4144702;28;20088;-86
2022/12/27 07:04:36;;;;;;;6.20;0.57;;;2.30;78.90;;;;;;4129659;28;20030;-87
2022/12/27 07:06:45;;;;;;;2.60;0.30;;;2.30;79.00;;;;;;4130337;28;20029;-85
2022/12/27 07:09:05;;;;;;;1.88;0.30;;;2.30;79.00;;;;;;4145827;28;20029;-86
2022/12/27 07:11:26;;;;;;;8.52;0.50;;;2.30;79.70;;;;;;4140513;28;20056;-85
2022/12/27 07:13:52;;;;;;;2.53;0.47;;;2.30;79.00;;;;;;4144323;28;20037;-84
2022/12/27 07:16:15;;;;;;;1.70;0.22;;;2.30;79.00;;;;;;4128307;28;20041;-87
2022/12/27 07:18:36;;;;;;;5.50;0.65;;;2.20;78.90;;;;;;4153032;28;20036;-85
2022/12/27 07:20:57;;;;;;;5.63;0.30;;;2.30;79.00;;;;;;4133570;28;20037;-86
2022/12/27 07:23:17;;;;;;;1.55;0.22;;;2.20;78.90;;;;;;4128852;28;20091;-85
2022/12/27 07:25:38;;;;;;;3.85;0.32;;;2.20;79.00;;;;;;4139680;28;20042;-86
2022/12/27 07:27:59;;;;;;;6.25;0.30;;;2.20;79.10;;;;;;4153347;28;20037;-86
2022/12/27 07:30:19;;;;;;;3.60;0.40;;;2.20;79.10;;;;;;4140584;28;20099;-86
2022/12/27 07:32:40;;;;;;;3.47;0.40;;;2.20;79.10;;;;;;4142983;28;20042;-85
2022/12/27 07:35:00;;;;;;;4.45;0.30;;;2.20;79.20;;;;;;4137470;28;20030;-86
2022/12/27 07:37:01;;;;;;;2.80;0.20;;;2.20;79.30;;;;;;4149383;28;20397;-89
2022/12/27 07:39:03;;;;;;;2.97;0.40;;;2.20;79.40;;;;;;4150594;28;20564;-87
2022/12/27 07:41:04;;;;;;;8.68;0.40;;;2.20;79.40;;;;;;4147122;28;20449;-86
2022/12/27 07:43:04;;;;;;;1.70;0.40;;;2.30;79.60;;;;;;4140439;28;20025;-86
2022/12/27 07:45:06;;;;;;;3.33;0.38;;;2.30;79.70;;;;;;4142276;28;22072;-86
2022/12/27 07:47:06;;;;;;;5.15;0.75;;;2.30;79.70;;;;;;4111225;28;20025;-85
2022/12/27 07:49:09;;;;;;;6.13;0.40;;;2.40;79.80;;;;;;4124109;28;20033;-86
2022/12/27 07:51:10;;;;;;;0.47;0.10;;;2.30;79.70;;;;;;4144666;28;20097;-86
2022/12/27 07:53:11;;;;;;;4.72;0.57;;;2.30;79.70;;;;;;4127416;28;20034;-87
2022/12/27 07:55:12;;;;;;;1.85;0.38;;;2.30;79.70;;;;;;4128080;28;20491;-87
2022/12/27 07:57:12;;;;;;;4.50;0.50;;;2.30;79.70;;;;;;4157348;28;20319;-86
2022/12/27 07:59:13;;;;;;;4.20;0.38;;;2.30;79.70;;;;;;4125122;28;20029;-86
2022/12/27 08:01:16;;;;;;;3.78;0.80;;;2.40;79.80;;;;;;4148555;28;20025;-87
2022/12/27 08:03:17;;;;;;;1.50;0.17;;;2.40;79.80;;;;;;4151514;28;20014;-87
2022/12/27 08:05:18;;;;;;;4.50;0.45;;;2.40;79.80;;;;;;4143928;28;20025;-85
2022/12/27 08:07:19;;;;;;;2.83;0.50;;;2.40;79.80;;;;;;4160049;28;20025;-86
2022/12/27 08:09:27;;;;;;;1.90;0.57;;;2.40;79.80;;;;;;4125739;28;20034;-87
2022/12/27 08:11:28;;;;;;;4.35;0.40;;;2.40;80.00;;;;;;4131868;28;20214;-87
2022/12/27 08:13:30;;;;;;;5.50;0.57;;;2.50;80.20;;;;;;4144456;28;20149;-86
2022/12/27 08:15:32;;;;;;;7.15;0.50;;;2.50;80.30;;;;;;4130421;28;20061;-86
2022/12/27 08:17:32;;;;;;;2.20;0.50;;;2.50;80.40;;;;;;4130302;28;20057;-87
2022/12/27 08:19:33;;;;;;;6.05;0.47;;;2.50;80.40;;;;;;4125787;28;20029;-86
2022/12/27 08:21:34;;;;;;;6.40;0.60;;;2.50;80.30;;;;;;4141046;28;20088;-88
2022/12/27 08:23:35;;;;;;;2.30;0.30;;;2.60;80.30;;;;;;4160351;28;20025;-86
2022/12/27 08:25:35;;;;;;;5.32;0.32;;;2.60;80.10;;;;;;4147065;28;20034;-85
2022/12/27 08:27:36;;;;;;;2.15;0.22;;;2.60;80.00;;;;;;4145358;28;20030;-87
2022/12/27 08:29:37;;;;;;;2.53;0.30;;;2.60;80.00;;;;;;4146674;28;20030;-87
2022/12/27 08:31:38;;;;;;;2.53;0.30;;;2.60;79.90;;;;;;4122494;28;20046;-88
2022/12/27 08:33:40;;;;;;;3.70;0.50;;;2.60;79.80;;;;;;4142095;28;20168;-85
2022/12/27 08:35:43;;;;;;;2.13;0.47;;;2.60;79.90;;;;;;4147541;28;20581;-86
2022/12/27 08:37:43;;;;;;;2.88;0.35;;;2.70;79.90;;;;;;4139887;28;20045;-86
2022/12/27 08:39:44;;;;;;;2.92;0.38;;;2.70;80.00;;;;;;4144063;28;20565;-86
2022/12/27 08:41:45;;;;;;;4.25;0.22;;;2.70;80.00;;;;;;4144277;28;20079;-85
2022/12/27 08:43:46;;;;;;;1.00;0.30;;;2.70;80.00;;;;;;4148906;28;20760;-85
2022/12/27 08:45:46;;;;;;;2.40;0.32;;;2.70;80.00;;;;;;4152821;28;20038;-87
2022/12/27 08:47:47;;;;;;;1.80;0.30;;;2.80;80.10;;;;;;4142010;28;20096;-87
2022/12/27 08:49:48;;;;;;;6.43;0.55;;;2.80;80.10;;;;;;4154725;28;20029;-87
2022/12/27 08:51:49;;;;;;;1.63;0.30;;;2.80;80.10;;;;;;4147597;28;20029;-86
2022/12/27 08:53:49;;;;;;;7.50;0.93;;;2.80;80.10;;;;;;4144546;28;20033;-86
2022/12/27 08:55:50;;;;;;;2.50;0.50;;;2.80;80.10;;;;;;4119602;28;20713;-87
2022/12/27 08:57:55;;;;;;;4.68;0.38;;;2.80;80.10;;;;;;4158653;28;20057;-85
2022/12/27 08:59:56;;;;;;;2.63;0.45;;;2.80;80.00;;;;;;4151067;28;20088;-86
2022/12/27 09:01:58;;;;;;;2.07;0.40;;;2.80;80.00;;;;;;4136235;28;20098;-85
2022/12/27 09:04:19;;;;;;;1.50;0.40;;;2.90;80.00;;;;;;4146860;28;20030;-86
2022/12/27 09:06:41;;;;;;;6.15;0.65;;;2.90;80.00;;;;;;4145458;28;20062;-87
2022/12/27 09:09:01;;;;;;;1.95;0.30;;;2.90;80.00;;;;;;4156281;28;20034;-86
2022/12/27 09:11:25;;;;;;;2.25;0.50;;;2.90;80.00;;;;;;4150045;28;20037;-85
2022/12/27 09:13:46;;;;;;;2.05;0.40;;;2.90;80.00;;;;;;4148980;28;20037;-86
2022/12/27 09:16:20;;;;;;;2.42;0.40;;;2.90;80.00;;;;;;4138402;28;21169;-87
2022/12/27 09:18:41;;;;;;;;;;;3.00;80.20;;;;;;4132587;28;20636;-87
2022/12/27 09:21:07;;;;;;;2.45;0.60;;;3.00;80.40;;;;;;4128652;28;19972;-85
2022/12/27 09:23:29;;;;;;;2.60;0.60;;;3.00;80.50;;;;;;4138591;28;20121;-87
2022/12/27 09:25:49;;;;;;;3.13;0.52;;;3.00;80.10;;;;;;4136360;28;20033;-86
2022/12/27 09:28:10;;;;;;;9.35;0.70;;;3.10;80.00;;;;;;4143351;28;20034;-86
2022/12/27 09:30:31;;;;;;;3.58;0.30;;;3.10;79.90;;;;;;4143577;28;20048;-86
2022/12/27 09:32:51;;;;;;;1.63;0.28;;;3.10;79.70;;;;;;4146540;28;20044;-87
2022/12/27 09:35:12;;;;;;;2.05;0.40;;;3.10;79.60;;;;;;4146082;28;20061;-87
2022/12/27 09:37:33;;;;;;;0.90;0.50;;;3.10;79.50;;;;;;4144699;28;20450;-86
2022/12/27 09:39:54;;;;;;;3.38;0.43;;;3.00;79.30;;;;;;4128849;28;20463;-86
2022/12/27 09:42:38;;;;;;;1.35;0.30;;;3.00;79.20;;;;;;4132571;28;20031;-87
2022/12/27 09:45:18;;;;;;;2.30;0.40;;;3.00;79.30;;;;;;4125992;28;20038;-86
2022/12/27 09:47:50;;;;;;;3.78;0.30;;;3.00;79.30;;;;;;4136236;28;20505;-87
2022/12/27 09:50:26;;;;;;;6.57;0.60;;;3.00;79.40;;;;;;4141535;28;20034;-85
2022/12/27 09:53:16;;;;;;;2.00;0.20;;;3.00;79.50;;;;;;4129686;28;20606;-86
2022/12/27 09:55:41;;;;;;;2.67;0.30;;;3.00;79.60;;;;;;4130137;28;20040;-86
2022/12/27 09:58:35;;;;;;;4.32;0.32;;;3.00;79.70;;;;;;4124258;28;20683;-86
2022/12/27 10:00:55;;;;;;;5.07;0.90;;;3.00;79.80;;;;;;4128255;28;20494;-85
2022/12/27 10:03:20;;;;;;;4.25;0.38;;;3.00;79.80;;;;;;4143442;28;20518;-85
2022/12/27 10:05:43;;;;;;;1.50;0.30;;;3.00;79.80;;;;;;4146561;28;20063;-86
2022/12/27 10:08:16;;;;;;;1.55;0.20;;;3.00;79.90;;;;;;4138865;28;20068;-85
2022/12/27 10:11:34;;;;;;;4.68;0.63;;;3.10;80.00;;;;;;4149447;28;20037;-86
2022/12/27 10:14:00;;;;;;;2.08;0.38;;;3.10;80.10;;;;;;4145713;28;20508;-87
2022/12/27 10:16:36;;;;;;;5.68;0.47;;;3.10;80.00;;;;;;4139998;28;20040;-85
2022/12/27 10:19:11;;;;;;;2.95;0.50;;;3.10;80.10;;;;;;4141810;28;20571;-86
2022/12/27 10:21:37;;;;;;;0.88;0.28;;;3.10;80.10;;;;;;4151723;28;20028;-86
2022/12/27 10:24:17;;;;;;;6.00;0.80;;;3.10;80.20;;;;;;4144173;28;20033;-86
2022/12/27 10:26:38;;;;;;;3.33;1.40;;;3.20;80.30;;;;;;4152112;28;20088;-86
2022/12/27 10:29:02;;;;;;;17.25;4.65;;;3.20;80.30;;;;;;4117807;28;20104;-86
2022/12/27 10:31:25;;;;;;;21.83;7.90;;;3.30;80.40;;;;;;4137645;28;20055;-86
2022/12/27 10:33:47;;;;;;;6.53;2.22;;;3.30;80.30;;;;;;4140278;28;20069;-86
2022/12/27 10:36:21;;;;;;;8.93;3.97;;;3.30;80.50;;;;;;4135753;28;20233;-86
2022/12/27 10:38:42;;;;;;;10.43;2.97;;;3.40;80.50;;;;;;4141914;28;20790;-86
2022/12/27 10:41:19;;;;;;;5.95;1.80;;;3.40;80.50;;;;;;4150075;28;20466;-87
2022/12/27 10:43:42;;;;;;;3.75;1.33;;;3.40;80.50;;;;;;4152837;28;20048;-87
2022/12/27 10:46:30;;;;;;;8.43;2.10;;;3.50;80.50;;;;;;4152622;28;20052;-88
2022/12/27 10:48:57;;;;;;;5.63;1.50;;;3.50;80.60;;;;;;4143815;28;20068;-87
2022/12/27 10:51:16;;;;;;;5.68;1.63;;;3.50;80.40;;;;;;4162621;28;20558;-86
2022/12/27 10:53:54;;;;;;;4.00;1.15;;;3.70;80.40;;;;;;4134282;28;20049;-86
2022/12/27 10:56:15;;;;;;;4.40;1.40;;;3.60;80.20;;;;;;4138311;28;20040;-86
2022/12/27 10:58:47;;;;;;;3.92;0.90;;;3.60;80.00;;;;;;4139323;28;20101;-86
2022/12/27 11:01:23;;;;;;;4.85;0.68;;;3.60;79.90;;;;;;4144490;28;20185;-86
2022/12/27 11:03:43;;;;;;;2.67;0.80;;;3.60;80.00;;;;;;4135863;28;20086;-87
2022/12/27 11:06:15;;;;;;;2.40;0.73;;;3.60;80.00;;;;;;4136468;28;20036;-87
2022/12/27 11:08:34;;;;;;;2.53;0.50;;;3.60;80.00;;;;;;4145320;28;20083;-85
2022/12/27 11:11:18;;;;;;;3.13;0.50;;;3.70;80.10;;;;;;4131800;28;20076;-86
2022/12/27 11:13:37;;;;;;;4.57;0.80;;;3.70;80.10;;;;;;4145420;28;20044;-86
2022/12/27 11:15:57;;;;;;;3.45;0.52;;;3.70;80.10;;;;;;4154396;28;20287;-86
2022/12/27 11:18:20;;;;;;;5.55;0.60;;;3.70;80.00;;;;;;4122540;28;20087;-87
2022/12/27 11:20:52;;;;;;;4.55;0.57;;;3.80;80.10;;;;;;4124934;28;20041;-86
2022/12/27 11:23:16;;;;;;;8.32;0.73;;;3.80;80.20;;;;;;4137974;28;20843;-87
2022/12/27 11:25:54;;;;;;;5.88;1.30;;;3.80;80.30;;;;;;4127726;28;20151;-88
2022/12/27 11:28:49;;;;;;;7.00;1.00;;;3.90;80.50;;;;;;4137308;28;20116;-86
2022/12/27 11:31:13;;;;;;;10.70;0.93;;;3.90;80.50;;;;;;4121079;28;20049;-87
2022/12/27 11:33:44;;;;;;;9.73;1.98;;;4.00;80.40;;;;;;4134210;28;20125;-87
2022/12/27 11:36:05;;;;;;;3.58;0.90;;;4.00;80.40;;;;;;4147770;28;20465;-88
2022/12/27 11:38:32;;;;;;;7.25;1.88;;;4.10;80.30;;;;;;4144427;28;20041;-88
2022/12/27 11:41:13;;;;;;;5.22;1.42;;;4.10;80.10;;;;;;4128617;28;20102;-87
2022/12/27 11:43:51;;;;;;;6.35;0.80;;;4.10;80.00;;;;;;4126950;28;20104;-88
2022/12/27 11:46:46;;;;;;;6.20;0.65;;;4.10;79.80;;;;;;4130964;28;20041;-88
2022/12/27 11:49:12;;;;;;;6.10;1.25;;;4.20;79.80;;;;;;4106345;28;20069;-89
2022/12/27 11:52:10;;;;;;;7.05;1.13;;;4.20;79.60;;;;;;4142838;28;20041;-87
2022/12/27 11:54:39;;;;;;;13.80;2.38;;;4.30;79.50;;;;;;4067008;28;20102;-88
2022/12/27 11:57:14;;;;;;;4.45;1.10;;;4.20;79.30;;;;;;4145430;28;20044;-88
2022/12/27 11:59:45;;;;;;;4.70;0.95;;;4.20;79.20;;;;;;4150327;28;20039;-88
2022/12/27 12:02:23;;;;;;;15.00;1.20;;;4.30;79.20;;;;;;4138068;28;20076;-87
2022/12/27 12:05:13;;;;;;;5.35;1.17;;;4.30;79.20;;;;;;4139498;28;20037;-87
2022/12/27 12:08:18;;;;;;;13.95;0.80;;;4.30;79.10;;;;;;4153937;28;20048;-87
2022/12/27 12:11:05;;;;;;;8.68;1.40;;;4.30;79.10;;;;;;4129302;28;20040;-88
2022/12/27 12:14:03;;;;;;;7.80;1.83;;;4.30;79.10;;;;;;4138531;28;20635;-90
2022/12/27 12:16:58;;;;;;;15.60;1.50;;;4.30;79.00;;;;;;4145689;28;20205;-90
2022/12/27 12:19:29;;;;;;;9.88;2.17;;;4.30;78.90;;;;;;4145619;28;20619;-89
2022/12/27 12:21:58;;;;;;;7.55;1.40;;;4.30;78.90;;;;;;4148969;28;20395;-88
2022/12/27 12:24:42;;;;;;;8.23;1.10;;;4.20;79.70;;;;;;4159778;28;20063;-90
2022/12/27 12:27:23;;;;;;;4.10;0.70;;;4.30;79.00;;;;;;4071809;28;20456;-89
2022/12/27 12:30:19;;;;;;;11.52;1.35;;;4.30;79.00;;;;;;4085838;28;20046;-88
2022/12/27 12:32:59;;;;;;;5.97;1.17;;;4.40;79.00;;;;;;4089182;29;20050;-89
2022/12/27 12:35:42;;;;;;;7.47;0.60;;;4.40;79.00;;;;;;4083606;28;20094;-88
2022/12/27 12:38:28;;;;;;;5.72;1.08;;;4.40;79.00;;;;;;4090742;28;20079;-88
2022/12/27 12:40:50;;;;;;;7.15;1.20;;;4.40;79.00;;;;;;4090632;28;20139;-90
2022/12/27 12:43:19;;;;;;;7.72;1.08;;;4.50;79.10;;;;;;4068570;28;20040;-90
2022/12/27 12:45:53;;;;;;;6.60;0.70;;;4.40;78.90;;;;;;4083153;28;20675;-88
2022/12/27 12:48:31;;;;;;;;;;;4.50;79.60;;;;;;4057621;29;20151;-88
2022/12/27 12:51:17;;;;;;;6.68;1.30;;;4.50;78.70;;;;;;4084369;28;19925;-88
2022/12/27 12:53:57;;;;;;;7.85;1.00;;;4.50;78.60;;;;;;4083050;28;20051;-88
2022/12/27 12:57:07;;;;;;;8.75;1.55;;;4.50;78.40;;;;;;4067849;29;20075;-88
2022/12/27 12:59:48;;;;;;;8.25;1.40;;;4.50;78.10;;;;;;4039580;29;22425;-88
2022/12/27 13:02:26;;;;;;;4.30;0.90;;;4.50;78.10;;;;;;4042854;29;20047;-89
2022/12/27 13:05:12;;;;;;;14.35;1.20;;;4.50;78.00;;;;;;4085173;28;20054;-89
2022/12/27 13:07:47;;;;;;;6.38;0.80;;;4.50;77.90;;;;;;4111381;28;20575;-88
2022/12/27 13:10:15;;;;;;;10.57;1.35;;;4.40;77.80;;;;;;4094616;28;20082;-88
2022/12/27 13:12:49;;;;;;;6.20;0.80;;;4.40;77.80;;;;;;4118464;28;20053;-89
2022/12/27 13:15:32;;;;;;;6.40;0.93;;;4.40;77.80;;;;;;4086383;28;20042;-89
2022/12/27 13:18:10;;;;;;;10.70;0.95;;;4.40;77.80;;;;;;4100907;28;20046;-88
2022/12/27 13:20:58;;;;;;;7.00;1.15;;;4.40;77.90;;;;;;4105877;28;20041;-88
2022/12/27 13:23:55;;;;;;;6.38;1.05;;;4.40;78.00;;;;;;4099584;28;20046;-88
2022/12/27 13:26:22;;;;;;;6.72;1.38;;;4.40;78.00;;;;;;4100110;28;20652;-91
2022/12/27 13:29:05;;;;;;;5.10;1.10;;;4.40;78.10;;;;;;4095695;28;20507;-86
2022/12/27 13:32:00;;;;;;;4.22;0.98;;;4.40;78.00;;;;;;4091413;28;20336;-87
2022/12/27 13:34:36;;;;;;;7.75;0.95;;;4.40;78.10;;;;;;4095315;28;20036;-87
2022/12/27 13:37:10;;;;;;;5.35;1.08;;;4.40;78.10;;;;;;4159254;28;20047;-87
2022/12/27 13:39:56;;;;;;;6.18;1.00;;;4.40;78.10;;;;;;4134247;28;20508;-87
2022/12/27 13:42:54;;;;;;;4.07;0.70;;;4.40;78.20;;;;;;4145536;28;20128;-86
2022/12/27 13:45:35;;;;;;;4.93;0.90;;;4.40;78.30;;;;;;4157526;28;20040;-86
2022/12/27 13:47:55;;;;;;;4.78;0.93;;;4.40;78.30;;;;;;4156540;28;20279;-87
2022/12/27 13:50:28;;;;;;;7.93;1.08;;;4.40;78.50;;;;;;4161861;28;20103;-85
2022/12/27 13:53:20;;;;;;;3.78;1.10;;;4.50;78.70;;;;;;4137417;28;20217;-88
2022/12/27 13:56:14;;;;;;;7.32;1.27;;;4.50;78.80;;;;;;4159917;28;20125;-88
2022/12/27 13:58:41;;;;;;;7.10;1.30;;;4.50;78.80;;;;;;4160818;28;20044;-87